sensor_id;sensor_type;location;lat;lon;timestamp;P1;durP1;ratioP1;P2;durP2;ratioP2
8636;SDS011;4356;49.068;8.658;2023-04-06T00:00:56;3.93;;;3.63;;
8636;SDS011;4356;49.068;8.658;2023-04-06T00:03:22;5.83;;;3.43;;
8636;SDS011;4356;49.068;8.658;2023-04-06T00:05:47;4.13;;;3.83;;
8636;SDS011;4356;49.068;8.658;2023-04-06T00:08:13;4.13;;;3.83;;
8636;SDS011;4356;49.068;8.658;2023-04-06T00:10:39;3.30;;;3.10;;
8636;SDS011;4356;49.068;8.658;2023-04-06T00:13:06;3.97;;;3.67;;
8636;SDS011;4356;49.068;8.658;2023-04-06T00:15:33;4.03;;;3.73;;
8636;SDS011;4356;49.068;8.658;2023-04-06T00:17:59;3.80;;;3.50;;
8636;SDS011;4356;49.068;8.658;2023-04-06T00:20:24;3.90;;;3.60;;
8636;SDS011;4356;49.068;8.658;2023-04-06T00:22:50;4.03;;;3.73;;
8636;SDS011;4356;49.068;8.658;2023-04-06T00:25:16;3.40;;;3.20;;
8636;SDS011;4356;49.068;8.658;2023-04-06T00:27:42;3.70;;;3.50;;
8636;SDS011;4356;49.068;8.658;2023-04-06T00:30:08;3.20;;;3.03;;
8636;SDS011;4356;49.068;8.658;2023-04-06T00:32:34;4.07;;;3.77;;
8636;SDS011;4356;49.068;8.658;2023-04-06T00:35:04;4.30;;;3.90;;
8636;SDS011;4356;49.068;8.658;2023-04-06T00:37:30;5.17;;;3.63;;
8636;SDS011;4356;49.068;8.658;2023-04-06T00:39:56;3.77;;;3.57;;
8636;SDS011;4356;49.068;8.658;2023-04-06T00:42:22;3.93;;;3.57;;
8636;SDS011;4356;49.068;8.658;2023-04-06T00:44:54;3.70;;;3.50;;
8636;SDS011;4356;49.068;8.658;2023-04-06T00:47:21;5.43;;;4.40;;
8636;SDS011;4356;49.068;8.658;2023-04-06T00:49:48;3.60;;;3.40;;
8636;SDS011;4356;49.068;8.658;2023-04-06T00:52:14;3.90;;;3.60;;
8636;SDS011;4356;49.068;8.658;2023-04-06T00:54:40;3.97;;;3.67;;
8636;SDS011;4356;49.068;8.658;2023-04-06T00:57:06;3.87;;;3.57;;
8636;SDS011;4356;49.068;8.658;2023-04-06T00:59:32;3.97;;;3.60;;
8636;SDS011;4356;49.068;8.658;2023-04-06T01:01:57;3.50;;;3.30;;
8636;SDS011;4356;49.068;8.658;2023-04-06T01:04:23;4.00;;;3.70;;
8636;SDS011;4356;49.068;8.658;2023-04-06T01:06:49;3.87;;;3.57;;
8636;SDS011;4356;49.068;8.658;2023-04-06T01:09:16;4.10;;;3.70;;
8636;SDS011;4356;49.068;8.658;2023-04-06T01:11:42;4.33;;;3.97;;
8636;SDS011;4356;49.068;8.658;2023-04-06T01:14:08;4.10;;;3.67;;
8636;SDS011;4356;49.068;8.658;2023-04-06T01:16:34;4.10;;;3.80;;
8636;SDS011;4356;49.068;8.658;2023-04-06T01:19:01;4.10;;;3.70;;
8636;SDS011;4356;49.068;8.658;2023-04-06T01:21:26;4.10;;;3.90;;
8636;SDS011;4356;49.068;8.658;2023-04-06T01:23:52;4.03;;;3.77;;
8636;SDS011;4356;49.068;8.658;2023-04-06T01:26:18;4.00;;;3.70;;
8636;SDS011;4356;49.068;8.658;2023-04-06T01:28:50;3.70;;;3.50;;
8636;SDS011;4356;49.068;8.658;2023-04-06T01:31:16;4.33;;;3.63;;
8636;SDS011;4356;49.068;8.658;2023-04-06T01:33:42;4.00;;;3.70;;
8636;SDS011;4356;49.068;8.658;2023-04-06T01:36:07;4.33;;;3.93;;
8636;SDS011;4356;49.068;8.658;2023-04-06T01:38:33;3.70;;;3.50;;
8636;SDS011;4356;49.068;8.658;2023-04-06T01:40:59;3.50;;;3.30;;
8636;SDS011;4356;49.068;8.658;2023-04-06T01:43:24;4.63;;;4.23;;
8636;SDS011;4356;49.068;8.658;2023-04-06T01:45:50;4.23;;;3.83;;
8636;SDS011;4356;49.068;8.658;2023-04-06T01:48:16;4.20;;;3.90;;
8636;SDS011;4356;49.068;8.658;2023-04-06T01:50:41;3.83;;;3.53;;
8636;SDS011;4356;49.068;8.658;2023-04-06T01:53:07;3.83;;;3.63;;
8636;SDS011;4356;49.068;8.658;2023-04-06T01:55:33;4.00;;;3.80;;
8636;SDS011;4356;49.068;8.658;2023-04-06T01:57:58;4.00;;;3.80;;
8636;SDS011;4356;49.068;8.658;2023-04-06T02:00:24;5.50;;;3.43;;
8636;SDS011;4356;49.068;8.658;2023-04-06T02:02:50;4.07;;;3.77;;
8636;SDS011;4356;49.068;8.658;2023-04-06T02:05:16;3.90;;;3.57;;
8636;SDS011;4356;49.068;8.658;2023-04-06T02:07:41;4.03;;;3.63;;
8636;SDS011;4356;49.068;8.658;2023-04-06T02:10:11;3.90;;;3.60;;
8636;SDS011;4356;49.068;8.658;2023-04-06T02:12:38;4.37;;;3.97;;
8636;SDS011;4356;49.068;8.658;2023-04-06T02:15:04;4.57;;;4.10;;
8636;SDS011;4356;49.068;8.658;2023-04-06T02:17:30;4.40;;;4.10;;
8636;SDS011;4356;49.068;8.658;2023-04-06T02:19:55;4.27;;;4.00;;
8636;SDS011;4356;49.068;8.658;2023-04-06T02:22:21;4.43;;;4.03;;
8636;SDS011;4356;49.068;8.658;2023-04-06T02:24:47;4.33;;;3.93;;
8636;SDS011;4356;49.068;8.658;2023-04-06T02:27:13;4.40;;;4.00;;
8636;SDS011;4356;49.068;8.658;2023-04-06T02:29:39;4.33;;;3.93;;
8636;SDS011;4356;49.068;8.658;2023-04-06T02:32:05;3.97;;;3.70;;
8636;SDS011;4356;49.068;8.658;2023-04-06T02:34:31;3.87;;;3.57;;
8636;SDS011;4356;49.068;8.658;2023-04-06T02:36:57;3.60;;;3.40;;
8636;SDS011;4356;49.068;8.658;2023-04-06T02:39:22;3.93;;;3.70;;
8636;SDS011;4356;49.068;8.658;2023-04-06T02:41:48;4.10;;;3.80;;
8636;SDS011;4356;49.068;8.658;2023-04-06T02:44:13;4.00;;;3.70;;
8636;SDS011;4356;49.068;8.658;2023-04-06T02:46:39;4.53;;;4.17;;
8636;SDS011;4356;49.068;8.658;2023-04-06T02:49:05;4.03;;;3.73;;
8636;SDS011;4356;49.068;8.658;2023-04-06T02:51:31;5.53;;;4.00;;
8636;SDS011;4356;49.068;8.658;2023-04-06T02:53:56;4.03;;;3.73;;
8636;SDS011;4356;49.068;8.658;2023-04-06T02:56:22;4.17;;;3.87;;
8636;SDS011;4356;49.068;8.658;2023-04-06T02:58:47;4.00;;;3.70;;
8636;SDS011;4356;49.068;8.658;2023-04-06T03:01:13;4.30;;;4.00;;
8636;SDS011;4356;49.068;8.658;2023-04-06T03:03:39;4.50;;;4.20;;
8636;SDS011;4356;49.068;8.658;2023-04-06T03:06:05;4.47;;;4.07;;
8636;SDS011;4356;49.068;8.658;2023-04-06T03:08:31;4.60;;;4.30;;
8636;SDS011;4356;49.068;8.658;2023-04-06T03:10:57;4.70;;;4.30;;
8636;SDS011;4356;49.068;8.658;2023-04-06T03:13:22;7.10;;;6.50;;
8636;SDS011;4356;49.068;8.658;2023-04-06T03:15:48;11.07;;;7.77;;
8636;SDS011;4356;49.068;8.658;2023-04-06T03:18:14;9.27;;;8.33;;
8636;SDS011;4356;49.068;8.658;2023-04-06T03:20:39;12.00;;;8.30;;
8636;SDS011;4356;49.068;8.658;2023-04-06T03:23:06;15.80;;;10.30;;
8636;SDS011;4356;49.068;8.658;2023-04-06T03:25:31;20.80;;;13.27;;
8636;SDS011;4356;49.068;8.658;2023-04-06T03:27:57;8.43;;;7.47;;
8636;SDS011;4356;49.068;8.658;2023-04-06T03:30:23;6.00;;;5.50;;
8636;SDS011;4356;49.068;8.658;2023-04-06T03:32:48;14.73;;;11.03;;
8636;SDS011;4356;49.068;8.658;2023-04-06T03:35:14;9.87;;;9.00;;
8636;SDS011;4356;49.068;8.658;2023-04-06T03:37:40;10.00;;;9.00;;
8636;SDS011;4356;49.068;8.658;2023-04-06T03:40:06;5.70;;;5.20;;
8636;SDS011;4356;49.068;8.658;2023-04-06T03:42:31;4.93;;;4.53;;
8636;SDS011;4356;49.068;8.658;2023-04-06T03:44:58;5.37;;;4.83;;
8636;SDS011;4356;49.068;8.658;2023-04-06T03:47:24;4.57;;;4.20;;
8636;SDS011;4356;49.068;8.658;2023-04-06T03:49:50;5.40;;;5.00;;
8636;SDS011;4356;49.068;8.658;2023-04-06T03:52:15;6.03;;;5.53;;
8636;SDS011;4356;49.068;8.658;2023-04-06T03:54:41;7.57;;;5.77;;
8636;SDS011;4356;49.068;8.658;2023-04-06T03:57:07;5.30;;;4.90;;
8636;SDS011;4356;49.068;8.658;2023-04-06T03:59:32;4.70;;;4.30;;
8636;SDS011;4356;49.068;8.658;2023-04-06T04:01:58;5.20;;;4.60;;
8636;SDS011;4356;49.068;8.658;2023-04-06T04:04:24;5.70;;;5.30;;
8636;SDS011;4356;49.068;8.658;2023-04-06T04:06:49;5.60;;;5.10;;
8636;SDS011;4356;49.068;8.658;2023-04-06T04:09:15;5.70;;;5.10;;
8636;SDS011;4356;49.068;8.658;2023-04-06T04:11:41;5.83;;;5.33;;
8636;SDS011;4356;49.068;8.658;2023-04-06T04:14:06;5.53;;;5.00;;
8636;SDS011;4356;49.068;8.658;2023-04-06T04:16:32;4.77;;;4.40;;
8636;SDS011;4356;49.068;8.658;2023-04-06T04:18:58;4.53;;;4.23;;
8636;SDS011;4356;49.068;8.658;2023-04-06T04:21:24;5.43;;;4.63;;
8636;SDS011;4356;49.068;8.658;2023-04-06T04:23:51;5.17;;;4.50;;
8636;SDS011;4356;49.068;8.658;2023-04-06T04:26:17;4.60;;;4.30;;
8636;SDS011;4356;49.068;8.658;2023-04-06T04:28:43;4.20;;;3.90;;
8636;SDS011;4356;49.068;8.658;2023-04-06T04:31:09;4.10;;;3.80;;
8636;SDS011;4356;49.068;8.658;2023-04-06T04:33:35;4.07;;;3.77;;
8636;SDS011;4356;49.068;8.658;2023-04-06T04:36:01;5.43;;;4.73;;
8636;SDS011;4356;49.068;8.658;2023-04-06T04:38:26;6.47;;;4.57;;
8636;SDS011;4356;49.068;8.658;2023-04-06T04:40:52;5.30;;;4.90;;
8636;SDS011;4356;49.068;8.658;2023-04-06T04:43:18;5.10;;;4.70;;
8636;SDS011;4356;49.068;8.658;2023-04-06T04:45:43;6.27;;;4.90;;
8636;SDS011;4356;49.068;8.658;2023-04-06T04:48:09;5.50;;;5.10;;
8636;SDS011;4356;49.068;8.658;2023-04-06T04:50:35;6.63;;;4.80;;
8636;SDS011;4356;49.068;8.658;2023-04-06T04:53:00;5.70;;;5.10;;
8636;SDS011;4356;49.068;8.658;2023-04-06T04:55:27;4.10;;;3.87;;
8636;SDS011;4356;49.068;8.658;2023-04-06T04:57:54;4.30;;;3.90;;
8636;SDS011;4356;49.068;8.658;2023-04-06T05:00:19;5.17;;;4.00;;
8636;SDS011;4356;49.068;8.658;2023-04-06T05:02:46;4.83;;;4.27;;
8636;SDS011;4356;49.068;8.658;2023-04-06T05:05:11;5.97;;;4.57;;
8636;SDS011;4356;49.068;8.658;2023-04-06T05:07:37;4.70;;;4.30;;
8636;SDS011;4356;49.068;8.658;2023-04-06T05:10:03;4.53;;;4.23;;
8636;SDS011;4356;49.068;8.658;2023-04-06T05:12:28;6.87;;;5.27;;
8636;SDS011;4356;49.068;8.658;2023-04-06T05:14:54;5.60;;;5.10;;
8636;SDS011;4356;49.068;8.658;2023-04-06T05:17:20;5.60;;;4.80;;
8636;SDS011;4356;49.068;8.658;2023-04-06T05:19:46;5.67;;;3.83;;
8636;SDS011;4356;49.068;8.658;2023-04-06T05:22:11;8.60;;;6.23;;
8636;SDS011;4356;49.068;8.658;2023-04-06T05:24:39;5.80;;;4.87;;
8636;SDS011;4356;49.068;8.658;2023-04-06T05:27:05;4.53;;;4.20;;
8636;SDS011;4356;49.068;8.658;2023-04-06T05:29:30;5.23;;;4.73;;
8636;SDS011;4356;49.068;8.658;2023-04-06T05:31:59;5.93;;;4.67;;
8636;SDS011;4356;49.068;8.658;2023-04-06T05:34:25;5.50;;;4.90;;
8636;SDS011;4356;49.068;8.658;2023-04-06T05:36:51;8.00;;;5.50;;
8636;SDS011;4356;49.068;8.658;2023-04-06T05:39:17;7.27;;;5.57;;
8636;SDS011;4356;49.068;8.658;2023-04-06T05:41:43;9.87;;;5.47;;
8636;SDS011;4356;49.068;8.658;2023-04-06T05:44:09;6.30;;;5.67;;
8636;SDS011;4356;49.068;8.658;2023-04-06T05:46:35;6.60;;;6.10;;
8636;SDS011;4356;49.068;8.658;2023-04-06T05:49:00;6.47;;;5.90;;
8636;SDS011;4356;49.068;8.658;2023-04-06T05:51:26;6.30;;;5.70;;
8636;SDS011;4356;49.068;8.658;2023-04-06T05:53:52;7.83;;;5.40;;
8636;SDS011;4356;49.068;8.658;2023-04-06T05:56:18;6.10;;;5.50;;
8636;SDS011;4356;49.068;8.658;2023-04-06T05:58:43;5.93;;;5.53;;
8636;SDS011;4356;49.068;8.658;2023-04-06T06:01:09;6.53;;;5.93;;
8636;SDS011;4356;49.068;8.658;2023-04-06T06:03:35;5.90;;;5.40;;
8636;SDS011;4356;49.068;8.658;2023-04-06T06:06:03;5.80;;;5.33;;
8636;SDS011;4356;49.068;8.658;2023-04-06T06:08:30;5.47;;;4.97;;
8636;SDS011;4356;49.068;8.658;2023-04-06T06:10:56;6.17;;;5.67;;
8636;SDS011;4356;49.068;8.658;2023-04-06T06:13:22;6.40;;;5.80;;
8636;SDS011;4356;49.068;8.658;2023-04-06T06:15:49;9.23;;;5.57;;
8636;SDS011;4356;49.068;8.658;2023-04-06T06:18:15;7.57;;;6.77;;
8636;SDS011;4356;49.068;8.658;2023-04-06T06:20:41;8.40;;;6.33;;
8636;SDS011;4356;49.068;8.658;2023-04-06T06:23:07;7.97;;;6.53;;
8636;SDS011;4356;49.068;8.658;2023-04-06T06:25:33;10.17;;;8.47;;
8636;SDS011;4356;49.068;8.658;2023-04-06T06:27:58;9.53;;;7.97;;
8636;SDS011;4356;49.068;8.658;2023-04-06T06:30:25;7.90;;;6.83;;
8636;SDS011;4356;49.068;8.658;2023-04-06T06:32:51;6.60;;;6.00;;
8636;SDS011;4356;49.068;8.658;2023-04-06T06:35:19;6.53;;;5.97;;
8636;SDS011;4356;49.068;8.658;2023-04-06T06:37:45;6.43;;;5.83;;
8636;SDS011;4356;49.068;8.658;2023-04-06T06:40:11;6.37;;;5.87;;
8636;SDS011;4356;49.068;8.658;2023-04-06T06:42:38;6.37;;;5.77;;
8636;SDS011;4356;49.068;8.658;2023-04-06T06:45:05;8.50;;;6.33;;
8636;SDS011;4356;49.068;8.658;2023-04-06T06:47:32;6.93;;;6.23;;
8636;SDS011;4356;49.068;8.658;2023-04-06T06:49:58;6.60;;;5.97;;
8636;SDS011;4356;49.068;8.658;2023-04-06T06:52:23;6.50;;;6.00;;
8636;SDS011;4356;49.068;8.658;2023-04-06T06:54:49;9.83;;;5.73;;
8636;SDS011;4356;49.068;8.658;2023-04-06T06:57:15;7.10;;;6.10;;
8636;SDS011;4356;49.068;8.658;2023-04-06T06:59:41;6.50;;;5.83;;
8636;SDS011;4356;49.068;8.658;2023-04-06T07:02:09;6.27;;;5.77;;
8636;SDS011;4356;49.068;8.658;2023-04-06T07:04:35;6.30;;;5.80;;
8636;SDS011;4356;49.068;8.658;2023-04-06T07:07:00;6.83;;;6.23;;
8636;SDS011;4356;49.068;8.658;2023-04-06T07:09:26;9.37;;;6.23;;
8636;SDS011;4356;49.068;8.658;2023-04-06T07:11:52;6.70;;;6.10;;
8636;SDS011;4356;49.068;8.658;2023-04-06T07:14:18;7.37;;;6.73;;
8636;SDS011;4356;49.068;8.658;2023-04-06T07:16:44;7.47;;;6.63;;
8636;SDS011;4356;49.068;8.658;2023-04-06T07:19:10;7.10;;;6.47;;
8636;SDS011;4356;49.068;8.658;2023-04-06T07:21:36;6.77;;;6.17;;
8636;SDS011;4356;49.068;8.658;2023-04-06T07:24:02;6.70;;;6.10;;
8636;SDS011;4356;49.068;8.658;2023-04-06T07:26:28;7.37;;;6.47;;
8636;SDS011;4356;49.068;8.658;2023-04-06T07:28:57;8.97;;;5.80;;
8636;SDS011;4356;49.068;8.658;2023-04-06T07:31:23;7.23;;;6.57;;
8636;SDS011;4356;49.068;8.658;2023-04-06T07:33:49;6.17;;;5.73;;
8636;SDS011;4356;49.068;8.658;2023-04-06T07:36:15;6.07;;;5.27;;
8636;SDS011;4356;49.068;8.658;2023-04-06T07:38:40;5.60;;;5.20;;
8636;SDS011;4356;49.068;8.658;2023-04-06T07:41:06;5.63;;;5.13;;
8636;SDS011;4356;49.068;8.658;2023-04-06T07:43:32;4.83;;;4.03;;
8636;SDS011;4356;49.068;8.658;2023-04-06T07:45:57;4.77;;;4.47;;
8636;SDS011;4356;49.068;8.658;2023-04-06T07:48:24;5.17;;;4.77;;
8636;SDS011;4356;49.068;8.658;2023-04-06T07:50:50;5.10;;;4.80;;
8636;SDS011;4356;49.068;8.658;2023-04-06T07:53:17;5.67;;;4.57;;
8636;SDS011;4356;49.068;8.658;2023-04-06T07:55:43;5.00;;;4.63;;
8636;SDS011;4356;49.068;8.658;2023-04-06T07:58:08;5.60;;;5.20;;
8636;SDS011;4356;49.068;8.658;2023-04-06T08:00:34;5.30;;;4.23;;
8636;SDS011;4356;49.068;8.658;2023-04-06T08:03:00;5.40;;;4.93;;
8636;SDS011;4356;49.068;8.658;2023-04-06T08:05:26;7.17;;;5.33;;
8636;SDS011;4356;49.068;8.658;2023-04-06T08:07:51;5.10;;;4.73;;
8636;SDS011;4356;49.068;8.658;2023-04-06T08:10:17;5.77;;;5.30;;
8636;SDS011;4356;49.068;8.658;2023-04-06T08:12:43;6.73;;;5.50;;
8636;SDS011;4356;49.068;8.658;2023-04-06T08:15:08;6.50;;;5.77;;
8636;SDS011;4356;49.068;8.658;2023-04-06T08:17:34;5.73;;;4.90;;
8636;SDS011;4356;49.068;8.658;2023-04-06T08:20:00;5.50;;;4.73;;
8636;SDS011;4356;49.068;8.658;2023-04-06T08:22:28;5.53;;;5.10;;
8636;SDS011;4356;49.068;8.658;2023-04-06T08:24:54;5.50;;;5.10;;
8636;SDS011;4356;49.068;8.658;2023-04-06T08:27:20;5.43;;;5.03;;
8636;SDS011;4356;49.068;8.658;2023-04-06T08:29:45;5.40;;;5.00;;
8636;SDS011;4356;49.068;8.658;2023-04-06T08:32:11;5.37;;;4.83;;
8636;SDS011;4356;49.068;8.658;2023-04-06T08:34:37;5.60;;;5.20;;
8636;SDS011;4356;49.068;8.658;2023-04-06T08:37:02;5.47;;;4.97;;
8636;SDS011;4356;49.068;8.658;2023-04-06T08:39:28;6.00;;;5.40;;
8636;SDS011;4356;49.068;8.658;2023-04-06T08:41:55;5.60;;;5.17;;
8636;SDS011;4356;49.068;8.658;2023-04-06T08:44:25;4.90;;;4.60;;
8636;SDS011;4356;49.068;8.658;2023-04-06T08:46:52;5.50;;;4.60;;
8636;SDS011;4356;49.068;8.658;2023-04-06T08:49:18;4.67;;;4.37;;
8636;SDS011;4356;49.068;8.658;2023-04-06T08:51:44;4.87;;;4.57;;
8636;SDS011;4356;49.068;8.658;2023-04-06T08:54:10;5.47;;;4.67;;
8636;SDS011;4356;49.068;8.658;2023-04-06T08:56:37;4.93;;;4.53;;
8636;SDS011;4356;49.068;8.658;2023-04-06T08:59:05;4.67;;;4.33;;
8636;SDS011;4356;49.068;8.658;2023-04-06T09:01:31;5.10;;;4.67;;
8636;SDS011;4356;49.068;8.658;2023-04-06T09:04:01;5.07;;;4.67;;
8636;SDS011;4356;49.068;8.658;2023-04-06T09:06:30;9.53;;;5.20;;
8636;SDS011;4356;49.068;8.658;2023-04-06T09:08:56;5.10;;;4.70;;
8636;SDS011;4356;49.068;8.658;2023-04-06T09:11:23;5.63;;;4.83;;
8636;SDS011;4356;49.068;8.658;2023-04-06T09:13:49;5.03;;;4.73;;
8636;SDS011;4356;49.068;8.658;2023-04-06T09:16:16;5.63;;;5.07;;
8636;SDS011;4356;49.068;8.658;2023-04-06T09:18:42;5.53;;;5.03;;
8636;SDS011;4356;49.068;8.658;2023-04-06T09:21:10;7.10;;;5.10;;
8636;SDS011;4356;49.068;8.658;2023-04-06T09:23:36;5.13;;;4.63;;
8636;SDS011;4356;49.068;8.658;2023-04-06T09:26:15;6.47;;;4.67;;
8636;SDS011;4356;49.068;8.658;2023-04-06T09:28:43;6.10;;;5.30;;
8636;SDS011;4356;49.068;8.658;2023-04-06T09:31:11;5.00;;;4.60;;
8636;SDS011;4356;49.068;8.658;2023-04-06T09:33:41;5.93;;;5.17;;
8636;SDS011;4356;49.068;8.658;2023-04-06T09:36:08;5.27;;;4.87;;
8636;SDS011;4356;49.068;8.658;2023-04-06T09:38:37;4.93;;;4.53;;
8636;SDS011;4356;49.068;8.658;2023-04-06T09:41:04;5.97;;;5.00;;
8636;SDS011;4356;49.068;8.658;2023-04-06T09:43:30;5.70;;;5.30;;
8636;SDS011;4356;49.068;8.658;2023-04-06T09:45:56;5.23;;;4.83;;
8636;SDS011;4356;49.068;8.658;2023-04-06T09:48:24;5.50;;;5.10;;
8636;SDS011;4356;49.068;8.658;2023-04-06T09:50:58;5.23;;;4.83;;
8636;SDS011;4356;49.068;8.658;2023-04-06T09:53:28;7.23;;;5.03;;
8636;SDS011;4356;49.068;8.658;2023-04-06T09:55:57;5.23;;;4.87;;
8636;SDS011;4356;49.068;8.658;2023-04-06T09:58:27;5.80;;;5.37;;
8636;SDS011;4356;49.068;8.658;2023-04-06T10:01:10;7.23;;;5.33;;
8636;SDS011;4356;49.068;8.658;2023-04-06T10:06:21;7.60;;;5.10;;
8636;SDS011;4356;49.068;8.658;2023-04-06T10:08:50;5.50;;;5.10;;
8636;SDS011;4356;49.068;8.658;2023-04-06T10:11:20;5.57;;;5.17;;
8636;SDS011;4356;49.068;8.658;2023-04-06T10:13:47;5.57;;;5.07;;
8636;SDS011;4356;49.068;8.658;2023-04-06T10:16:14;5.00;;;4.70;;
8636;SDS011;4356;49.068;8.658;2023-04-06T10:18:42;7.47;;;4.90;;
8636;SDS011;4356;49.068;8.658;2023-04-06T10:21:13;5.70;;;5.23;;
8636;SDS011;4356;49.068;8.658;2023-04-06T10:23:49;5.60;;;5.17;;
8636;SDS011;4356;49.068;8.658;2023-04-06T10:26:19;5.60;;;5.10;;
8636;SDS011;4356;49.068;8.658;2023-04-06T10:28:46;5.77;;;5.27;;
8636;SDS011;4356;49.068;8.658;2023-04-06T10:31:14;5.73;;;5.23;;
8636;SDS011;4356;49.068;8.658;2023-04-06T10:33:40;5.70;;;5.27;;
8636;SDS011;4356;49.068;8.658;2023-04-06T10:36:10;5.77;;;5.30;;
8636;SDS011;4356;49.068;8.658;2023-04-06T10:38:40;6.13;;;5.63;;
8636;SDS011;4356;49.068;8.658;2023-04-06T10:41:11;5.53;;;5.00;;
8636;SDS011;4356;49.068;8.658;2023-04-06T10:43:37;5.87;;;5.37;;
8636;SDS011;4356;49.068;8.658;2023-04-06T10:46:05;5.90;;;5.50;;
8636;SDS011;4356;49.068;8.658;2023-04-06T10:48:42;6.73;;;6.20;;
8636;SDS011;4356;49.068;8.658;2023-04-06T10:51:11;5.03;;;4.73;;
8636;SDS011;4356;49.068;8.658;2023-04-06T10:53:44;6.17;;;5.70;;
8636;SDS011;4356;49.068;8.658;2023-04-06T10:56:15;5.93;;;5.33;;
8636;SDS011;4356;49.068;8.658;2023-04-06T10:58:45;6.10;;;5.60;;
8636;SDS011;4356;49.068;8.658;2023-04-06T11:01:16;9.87;;;5.57;;
8636;SDS011;4356;49.068;8.658;2023-04-06T11:03:50;5.60;;;4.97;;
8636;SDS011;4356;49.068;8.658;2023-04-06T11:06:20;5.57;;;5.07;;
8636;SDS011;4356;49.068;8.658;2023-04-06T11:08:47;6.17;;;5.67;;
8636;SDS011;4356;49.068;8.658;2023-04-06T11:11:14;5.40;;;4.97;;
8636;SDS011;4356;49.068;8.658;2023-04-06T11:13:44;5.50;;;5.10;;
8636;SDS011;4356;49.068;8.658;2023-04-06T11:16:15;4.30;;;4.00;;
8636;SDS011;4356;49.068;8.658;2023-04-06T11:18:52;5.50;;;5.10;;
8636;SDS011;4356;49.068;8.658;2023-04-06T11:21:20;5.80;;;5.40;;
8636;SDS011;4356;49.068;8.658;2023-04-06T11:26:45;5.93;;;5.47;;
8636;SDS011;4356;49.068;8.658;2023-04-06T11:29:14;6.23;;;5.67;;
8636;SDS011;4356;49.068;8.658;2023-04-06T11:31:42;5.63;;;5.30;;
8636;SDS011;4356;49.068;8.658;2023-04-06T11:34:24;6.23;;;5.73;;
8636;SDS011;4356;49.068;8.658;2023-04-06T11:36:57;5.93;;;5.33;;
8636;SDS011;4356;49.068;8.658;2023-04-06T11:39:25;5.60;;;5.10;;
8636;SDS011;4356;49.068;8.658;2023-04-06T11:41:57;5.93;;;5.47;;
8636;SDS011;4356;49.068;8.658;2023-04-06T11:47:07;6.27;;;5.67;;
8636;SDS011;4356;49.068;8.658;2023-04-06T11:49:38;6.03;;;5.53;;
8636;SDS011;4356;49.068;8.658;2023-04-06T11:52:18;6.63;;;5.50;;
8636;SDS011;4356;49.068;8.658;2023-04-06T11:54:46;6.40;;;5.90;;
8636;SDS011;4356;49.068;8.658;2023-04-06T11:57:13;7.13;;;5.73;;
8636;SDS011;4356;49.068;8.658;2023-04-06T11:59:39;5.83;;;5.43;;
8636;SDS011;4356;49.068;8.658;2023-04-06T12:02:05;5.93;;;5.43;;
8636;SDS011;4356;49.068;8.658;2023-04-06T12:04:31;5.20;;;4.90;;
8636;SDS011;4356;49.068;8.658;2023-04-06T12:06:57;6.23;;;5.60;;
8636;SDS011;4356;49.068;8.658;2023-04-06T12:09:23;5.17;;;4.83;;
8636;SDS011;4356;49.068;8.658;2023-04-06T12:11:49;6.00;;;5.50;;
8636;SDS011;4356;49.068;8.658;2023-04-06T12:14:15;5.83;;;5.43;;
8636;SDS011;4356;49.068;8.658;2023-04-06T12:16:41;5.70;;;5.30;;
8636;SDS011;4356;49.068;8.658;2023-04-06T12:19:07;6.03;;;4.80;;
8636;SDS011;4356;49.068;8.658;2023-04-06T12:21:33;5.40;;;4.90;;
8636;SDS011;4356;49.068;8.658;2023-04-06T12:24:02;5.70;;;5.40;;
8636;SDS011;4356;49.068;8.658;2023-04-06T12:26:28;5.97;;;5.33;;
8636;SDS011;4356;49.068;8.658;2023-04-06T12:28:54;5.80;;;5.40;;
8636;SDS011;4356;49.068;8.658;2023-04-06T12:31:21;5.40;;;5.00;;
8636;SDS011;4356;49.068;8.658;2023-04-06T12:33:50;5.53;;;5.03;;
8636;SDS011;4356;49.068;8.658;2023-04-06T12:36:17;6.23;;;5.73;;
8636;SDS011;4356;49.068;8.658;2023-04-06T12:38:44;5.93;;;5.47;;
8636;SDS011;4356;49.068;8.658;2023-04-06T12:41:11;5.87;;;5.47;;
8636;SDS011;4356;49.068;8.658;2023-04-06T12:43:37;5.87;;;5.37;;
8636;SDS011;4356;49.068;8.658;2023-04-06T12:46:04;6.20;;;5.80;;
8636;SDS011;4356;49.068;8.658;2023-04-06T12:48:31;5.50;;;5.00;;
8636;SDS011;4356;49.068;8.658;2023-04-06T12:50:58;5.17;;;4.77;;
8636;SDS011;4356;49.068;8.658;2023-04-06T12:53:25;5.53;;;5.07;;
8636;SDS011;4356;49.068;8.658;2023-04-06T12:55:51;5.50;;;5.10;;
8636;SDS011;4356;49.068;8.658;2023-04-06T12:58:17;5.50;;;5.10;;
8636;SDS011;4356;49.068;8.658;2023-04-06T13:00:47;5.50;;;5.10;;
8636;SDS011;4356;49.068;8.658;2023-04-06T13:03:13;5.57;;;5.07;;
8636;SDS011;4356;49.068;8.658;2023-04-06T13:05:43;4.77;;;4.40;;
8636;SDS011;4356;49.068;8.658;2023-04-06T13:08:10;4.23;;;4.03;;
8636;SDS011;4356;49.068;8.658;2023-04-06T13:10:35;5.43;;;4.93;;
8636;SDS011;4356;49.068;8.658;2023-04-06T13:13:02;6.50;;;4.93;;
8636;SDS011;4356;49.068;8.658;2023-04-06T13:15:28;5.70;;;5.27;;
8636;SDS011;4356;49.068;8.658;2023-04-06T13:17:54;5.90;;;5.30;;
8636;SDS011;4356;49.068;8.658;2023-04-06T13:20:19;5.87;;;5.43;;
8636;SDS011;4356;49.068;8.658;2023-04-06T13:22:45;6.00;;;5.60;;
8636;SDS011;4356;49.068;8.658;2023-04-06T13:25:11;5.60;;;5.10;;
8636;SDS011;4356;49.068;8.658;2023-04-06T13:27:36;5.93;;;5.07;;
8636;SDS011;4356;49.068;8.658;2023-04-06T13:30:03;5.77;;;5.30;;
8636;SDS011;4356;49.068;8.658;2023-04-06T13:32:29;5.57;;;5.07;;
8636;SDS011;4356;49.068;8.658;2023-04-06T13:34:56;5.20;;;4.90;;
8636;SDS011;4356;49.068;8.658;2023-04-06T13:37:22;4.97;;;4.60;;
8636;SDS011;4356;49.068;8.658;2023-04-06T13:39:48;5.57;;;5.17;;
8636;SDS011;4356;49.068;8.658;2023-04-06T13:42:14;5.30;;;4.90;;
8636;SDS011;4356;49.068;8.658;2023-04-06T13:44:39;5.63;;;5.13;;
8636;SDS011;4356;49.068;8.658;2023-04-06T13:47:05;5.30;;;4.33;;
8636;SDS011;4356;49.068;8.658;2023-04-06T13:49:31;4.70;;;4.40;;
8636;SDS011;4356;49.068;8.658;2023-04-06T13:51:57;5.67;;;4.53;;
8636;SDS011;4356;49.068;8.658;2023-04-06T13:54:23;4.60;;;4.30;;
8636;SDS011;4356;49.068;8.658;2023-04-06T13:56:51;4.33;;;3.93;;
8636;SDS011;4356;49.068;8.658;2023-04-06T13:59:17;5.53;;;5.00;;
8636;SDS011;4356;49.068;8.658;2023-04-06T14:01:42;6.27;;;4.77;;
8636;SDS011;4356;49.068;8.658;2023-04-06T14:04:08;5.20;;;4.80;;
8636;SDS011;4356;49.068;8.658;2023-04-06T14:06:34;5.80;;;5.40;;
8636;SDS011;4356;49.068;8.658;2023-04-06T14:08:59;5.27;;;4.87;;
8636;SDS011;4356;49.068;8.658;2023-04-06T14:11:25;6.07;;;5.63;;
8636;SDS011;4356;49.068;8.658;2023-04-06T14:13:51;5.63;;;5.23;;
8636;SDS011;4356;49.068;8.658;2023-04-06T14:16:16;5.30;;;4.83;;
8636;SDS011;4356;49.068;8.658;2023-04-06T14:18:44;5.40;;;5.00;;
8636;SDS011;4356;49.068;8.658;2023-04-06T14:21:10;5.83;;;5.40;;
8636;SDS011;4356;49.068;8.658;2023-04-06T14:23:36;5.93;;;5.43;;
8636;SDS011;4356;49.068;8.658;2023-04-06T14:26:02;5.30;;;4.90;;
8636;SDS011;4356;49.068;8.658;2023-04-06T14:28:33;5.23;;;4.77;;
8636;SDS011;4356;49.068;8.658;2023-04-06T14:31:00;5.20;;;4.80;;
8636;SDS011;4356;49.068;8.658;2023-04-06T14:33:26;5.53;;;5.03;;
8636;SDS011;4356;49.068;8.658;2023-04-06T14:35:52;4.90;;;4.50;;
8636;SDS011;4356;49.068;8.658;2023-04-06T14:38:18;5.47;;;5.00;;
8636;SDS011;4356;49.068;8.658;2023-04-06T14:40:44;5.00;;;4.70;;
8636;SDS011;4356;49.068;8.658;2023-04-06T14:43:09;5.47;;;4.97;;
8636;SDS011;4356;49.068;8.658;2023-04-06T14:45:35;5.10;;;4.73;;
8636;SDS011;4356;49.068;8.658;2023-04-06T14:48:02;4.20;;;3.90;;
8636;SDS011;4356;49.068;8.658;2023-04-06T14:50:27;4.63;;;4.33;;
8636;SDS011;4356;49.068;8.658;2023-04-06T14:52:53;3.97;;;3.67;;
8636;SDS011;4356;49.068;8.658;2023-04-06T14:55:19;4.27;;;3.87;;
8636;SDS011;4356;49.068;8.658;2023-04-06T14:57:45;4.23;;;3.93;;
8636;SDS011;4356;49.068;8.658;2023-04-06T15:00:11;4.30;;;4.00;;
8636;SDS011;4356;49.068;8.658;2023-04-06T15:02:38;3.87;;;3.57;;
8636;SDS011;4356;49.068;8.658;2023-04-06T15:05:04;3.70;;;3.50;;
8636;SDS011;4356;49.068;8.658;2023-04-06T15:07:31;4.50;;;4.20;;
8636;SDS011;4356;49.068;8.658;2023-04-06T15:09:56;4.57;;;4.20;;
8636;SDS011;4356;49.068;8.658;2023-04-06T15:12:22;4.30;;;3.97;;
8636;SDS011;4356;49.068;8.658;2023-04-06T15:14:47;4.00;;;3.70;;
8636;SDS011;4356;49.068;8.658;2023-04-06T15:17:13;3.80;;;3.60;;
8636;SDS011;4356;49.068;8.658;2023-04-06T15:19:39;4.50;;;4.10;;